createdAt,value
2023-04-05T00:00:01.719Z,0.60
2023-04-05T00:02:31.321Z,0.75
2023-04-05T00:05:00.541Z,0.76
2023-04-05T00:07:28.176Z,0.76
2023-04-05T00:09:55.652Z,0.78
2023-04-05T00:12:23.130Z,0.65
2023-04-05T00:14:51.942Z,0.63
2023-04-05T00:17:19.511Z,0.65
2023-04-05T00:19:51.573Z,0.72
2023-04-05T00:22:25.920Z,0.92
2023-04-05T00:24:53.452Z,0.96
2023-04-05T00:27:21.250Z,1.30
2023-04-05T00:29:48.797Z,1.44
2023-04-05T00:32:17.648Z,1.47
2023-04-05T00:34:45.136Z,1.45
2023-04-05T00:37:12.861Z,1.33
2023-04-05T00:39:40.438Z,1.28
2023-04-05T00:42:09.096Z,1.20
2023-04-05T00:44:37.072Z,1.14
2023-04-05T00:47:05.730Z,1.01
2023-04-05T00:49:36.506Z,0.94
2023-04-05T00:52:05.147Z,0.66
2023-04-05T00:54:32.761Z,0.86
2023-04-05T00:57:00.825Z,0.99
2023-04-05T00:59:29.899Z,0.55
2023-04-05T01:02:02.617Z,0.63
2023-04-05T01:04:33.628Z,0.48
2023-04-05T01:07:08.844Z,0.28
2023-04-05T01:09:46.583Z,0.11
2023-04-05T01:12:18.655Z,0.46
2023-04-05T01:14:49.939Z,0.61
2023-04-05T01:17:21.957Z,0.72
2023-04-05T01:19:53.223Z,0.79
2023-04-05T01:22:56.980Z,0.93
2023-04-05T01:25:44.925Z,0.85
2023-04-05T01:28:41.363Z,0.78
2023-04-05T01:31:19.166Z,0.48
2023-04-05T01:33:56.379Z,0.43
2023-04-05T01:36:32.690Z,0.62
2023-04-05T01:39:03.116Z,0.51
2023-04-05T01:41:31.071Z,0.13
2023-04-05T01:43:58.551Z,-0.22
2023-04-05T01:46:27.454Z,0.16
2023-04-05T01:48:54.937Z,-0.47
2023-04-05T01:51:22.438Z,-1.18
2023-04-05T01:53:50.002Z,-1.44
2023-04-05T01:56:17.524Z,-1.54
2023-04-05T01:58:45.070Z,-1.13
2023-04-05T02:01:12.566Z,-1.32
2023-04-05T02:03:41.551Z,-1.14
2023-04-05T02:06:09.130Z,-0.73
2023-04-05T02:08:36.599Z,-0.09
2023-04-05T02:11:04.094Z,-0.01
2023-04-05T02:13:31.556Z,0.16
2023-04-05T02:15:59.039Z,0.17
2023-04-05T02:18:31.415Z,-0.27
2023-04-05T02:21:04.939Z,-0.10
2023-04-05T02:23:33.432Z,-0.44
2023-04-05T02:26:00.984Z,0.03
2023-04-05T02:28:28.540Z,0.40
2023-04-05T02:30:56.830Z,0.38
2023-04-05T02:33:24.367Z,0.44
2023-04-05T02:35:53.749Z,-0.54
2023-04-05T02:38:22.746Z,-0.26
2023-04-05T02:40:50.706Z,0.20
2023-04-05T02:43:18.349Z,-0.48
2023-04-05T02:45:46.951Z,0.03
2023-04-05T02:48:14.823Z,0.00
2023-04-05T02:50:42.682Z,0.05
2023-04-05T02:53:11.042Z,-0.08
2023-04-05T02:55:42.012Z,-0.07
2023-04-05T02:58:09.651Z,0.18
2023-04-05T03:00:38.273Z,-0.70
2023-04-05T03:03:06.104Z,-0.28
2023-04-05T03:05:33.622Z,-0.68
2023-04-05T03:08:02.276Z,-0.60
2023-04-05T03:10:34.878Z,0.02
2023-04-05T03:13:03.690Z,-0.07
2023-04-05T03:15:33.262Z,0.16
2023-04-05T03:18:00.746Z,0.36
2023-04-05T03:20:28.278Z,0.58
2023-04-05T03:22:56.216Z,0.44
2023-04-05T03:25:25.471Z,-0.49
2023-04-05T03:27:53.780Z,0.22
2023-04-05T03:30:23.090Z,0.47
2023-04-05T03:32:50.796Z,0.50
2023-04-05T03:35:19.230Z,0.28
2023-04-05T03:37:46.983Z,0.22
2023-04-05T03:40:14.763Z,0.13
2023-04-05T03:42:42.209Z,0.37
2023-04-05T03:45:10.398Z,0.39
2023-04-05T03:47:39.503Z,0.31
2023-04-05T03:50:08.626Z,0.31
2023-04-05T03:52:36.079Z,0.25
2023-04-05T03:55:03.946Z,0.14
2023-04-05T03:57:31.809Z,0.12
2023-04-05T03:59:59.266Z,0.00
2023-04-05T04:02:26.801Z,-0.24
2023-04-05T04:04:55.715Z,-0.15
2023-04-05T04:07:23.235Z,-0.11
2023-04-05T04:09:50.708Z,-0.04
2023-04-05T04:12:18.150Z,-0.09
2023-04-05T04:14:45.711Z,-0.12
2023-04-05T04:17:13.158Z,-0.19
2023-04-05T04:19:40.613Z,-0.21
2023-04-05T04:22:10.138Z,-0.24
2023-04-05T04:24:37.625Z,-0.27
2023-04-05T04:27:06.851Z,-0.33
2023-04-05T04:29:38.971Z,-0.28
2023-04-05T04:32:07.941Z,-0.41
2023-04-05T04:34:35.506Z,-0.48
2023-04-05T04:37:03.896Z,-0.47
2023-04-05T04:39:32.765Z,-0.47
2023-04-05T04:42:01.306Z,-0.49
2023-04-05T04:44:31.219Z,-0.58
2023-04-05T04:46:58.703Z,-0.51
2023-04-05T04:49:26.154Z,-0.54
2023-04-05T04:51:53.630Z,-0.67
2023-04-05T04:54:22.121Z,-0.48
2023-04-05T04:56:50.916Z,-0.33
2023-04-05T04:59:18.466Z,-0.18
2023-04-05T05:01:46.560Z,0.29
2023-04-05T05:04:14.069Z,0.91
2023-04-05T05:06:41.528Z,1.20
2023-04-05T05:09:09.051Z,1.72
2023-04-05T05:11:36.537Z,2.08
2023-04-05T05:14:05.387Z,2.99
2023-04-05T05:16:33.593Z,3.50
2023-04-05T05:19:01.456Z,4.03
2023-04-05T05:21:28.985Z,4.48
2023-04-05T05:23:56.420Z,5.40
2023-04-05T05:26:23.876Z,6.40
2023-04-05T05:28:51.298Z,7.42
2023-04-05T05:31:20.121Z,8.26
2023-04-05T05:33:49.898Z,8.78
2023-04-05T05:36:19.646Z,8.43
2023-04-05T05:38:47.610Z,9.00
2023-04-05T05:41:15.322Z,9.53
2023-04-05T05:43:42.758Z,9.73
2023-04-05T05:46:10.503Z,10.47
2023-04-05T05:48:39.367Z,10.56
2023-04-05T05:51:09.793Z,11.48
2023-04-05T05:53:38.037Z,11.42
2023-04-05T05:56:05.987Z,10.82
2023-04-05T05:58:33.751Z,9.44
2023-04-05T06:01:01.246Z,7.76
2023-04-05T06:03:29.801Z,7.32
2023-04-05T06:06:03.025Z,6.11
2023-04-05T06:08:30.522Z,6.26
2023-04-05T06:10:57.973Z,5.77
2023-04-05T06:13:25.630Z,6.51
2023-04-05T06:15:53.170Z,7.01
2023-04-05T06:18:21.454Z,7.90
2023-04-05T06:20:48.959Z,7.80
2023-04-05T06:23:17.724Z,6.64
2023-04-05T06:25:45.751Z,5.78
2023-04-05T06:28:13.207Z,6.62
2023-04-05T06:30:40.973Z,6.92
2023-04-05T06:33:08.879Z,6.93
2023-04-05T06:35:36.407Z,7.44
2023-04-05T06:38:03.883Z,7.81
2023-04-05T06:40:32.713Z,7.56
2023-04-05T06:43:00.240Z,7.97
2023-04-05T06:45:27.831Z,8.18
2023-04-05T06:47:55.306Z,7.16
2023-04-05T06:50:22.809Z,6.43
2023-04-05T06:52:50.308Z,5.74
2023-04-05T06:55:17.942Z,5.62
2023-04-05T06:57:46.800Z,4.33
2023-04-05T07:00:16.102Z,4.55
2023-04-05T07:02:43.878Z,3.22
2023-04-05T07:05:12.557Z,3.22
2023-04-05T07:07:42.411Z,3.51
2023-04-05T07:10:10.800Z,3.61
2023-04-05T07:12:38.547Z,4.03
2023-04-05T07:15:08.773Z,4.13
2023-04-05T07:17:36.440Z,4.41
2023-04-05T07:20:06.574Z,4.66
2023-04-05T07:22:34.260Z,5.11
2023-04-05T07:25:02.421Z,4.65
2023-04-05T07:27:30.293Z,5.29
2023-04-05T07:29:57.882Z,5.76
2023-04-05T07:32:26.827Z,5.47
2023-04-05T07:34:54.422Z,5.70
2023-04-05T07:37:21.867Z,5.61
2023-04-05T07:39:49.318Z,5.62
2023-04-05T07:42:17.850Z,5.57
2023-04-05T07:44:45.463Z,5.80
2023-04-05T07:47:12.917Z,6.35
2023-04-05T07:49:41.918Z,6.98
2023-04-05T07:52:09.385Z,7.69
2023-04-05T07:54:39.497Z,8.01
2023-04-05T07:57:07.298Z,8.34
2023-04-05T07:59:35.288Z,8.58
2023-04-05T08:02:13.841Z,8.59
2023-04-05T08:04:43.608Z,9.37
2023-04-05T08:07:11.190Z,8.90
2023-04-05T08:09:38.687Z,9.31
2023-04-05T08:12:06.753Z,8.54
2023-04-05T08:14:34.265Z,8.16
2023-04-05T08:17:01.749Z,8.03
2023-04-05T08:19:29.283Z,9.00
2023-04-05T08:21:58.074Z,9.59
2023-04-05T08:24:25.689Z,9.89
2023-04-05T08:26:53.205Z,10.65
2023-04-05T08:29:20.773Z,10.44
2023-04-05T08:31:48.324Z,11.63
2023-04-05T08:34:15.796Z,12.47
2023-04-05T08:36:43.291Z,12.66
2023-04-05T08:39:12.805Z,11.60
2023-04-05T08:41:42.968Z,12.26
2023-04-05T08:44:11.402Z,13.02
2023-04-05T08:46:39.566Z,14.76
2023-04-05T08:49:08.398Z,14.45
2023-04-05T08:51:39.085Z,12.51
2023-04-05T08:54:06.633Z,12.72
2023-04-05T08:56:36.852Z,14.13
2023-04-05T08:59:06.190Z,15.02
2023-04-05T09:01:35.004Z,13.12
2023-04-05T09:04:06.348Z,12.49
2023-04-05T09:06:34.177Z,12.16
2023-04-05T09:09:01.885Z,10.99
2023-04-05T09:11:29.360Z,12.01
2023-04-05T09:13:58.161Z,12.41
2023-04-05T09:16:27.355Z,11.83
2023-04-05T09:18:54.834Z,12.08
2023-04-05T09:21:23.414Z,11.40
2023-04-05T09:23:53.873Z,9.37
2023-04-05T09:26:22.427Z,9.71
2023-04-05T09:28:50.126Z,9.68
2023-04-05T09:31:32.731Z,8.02
2023-04-05T09:34:01.800Z,6.99
2023-04-05T09:36:29.372Z,7.23
2023-04-05T09:39:06.689Z,9.74
2023-04-05T09:41:34.612Z,9.78
2023-04-05T09:44:02.598Z,9.78
2023-04-05T09:46:33.915Z,9.56
2023-04-05T09:49:03.711Z,10.69
2023-04-05T09:51:35.666Z,12.24
2023-04-05T09:54:04.945Z,12.09
2023-04-05T09:56:35.688Z,13.87
2023-04-05T09:59:07.106Z,13.28
2023-04-05T10:01:36.734Z,12.23
2023-04-05T10:04:05.631Z,11.46
2023-04-05T10:06:37.056Z,8.55
2023-04-05T10:09:05.485Z,9.29
2023-04-05T10:11:33.981Z,9.76
2023-04-05T10:14:03.766Z,10.70
2023-04-05T10:16:36.110Z,10.64
2023-04-05T10:19:09.138Z,8.54
2023-04-05T10:21:43.112Z,8.65
2023-04-05T10:24:19.910Z,8.36
2023-04-05T10:27:00.939Z,9.00
2023-04-05T10:29:36.686Z,9.47
2023-04-05T10:32:14.853Z,10.93
2023-04-05T10:34:51.888Z,12.17
2023-04-05T10:37:27.446Z,11.61
2023-04-05T10:39:57.612Z,11.55
2023-04-05T10:42:28.533Z,10.46
2023-04-05T10:45:00.960Z,10.03
2023-04-05T10:47:32.511Z,11.00
2023-04-05T10:50:06.750Z,10.83
2023-04-05T10:52:35.224Z,9.02
2023-04-05T10:55:04.581Z,8.58
2023-04-05T10:57:32.864Z,9.72
2023-04-05T11:00:02.228Z,10.73
2023-04-05T11:02:30.754Z,10.92
2023-04-05T11:04:59.158Z,11.21
2023-04-05T11:07:43.958Z,13.84
2023-04-05T11:10:18.110Z,13.02
2023-04-05T11:13:05.246Z,11.68
2023-04-05T11:15:34.640Z,10.24
2023-04-05T11:18:07.342Z,8.95
2023-04-05T11:20:43.601Z,11.52
2023-04-05T11:23:13.646Z,12.69
2023-04-05T11:25:41.942Z,12.66
2023-04-05T11:28:09.852Z,11.67
2023-04-05T11:30:47.929Z,11.47
2023-04-05T11:33:37.168Z,11.46
2023-04-05T11:36:05.482Z,12.91
2023-04-05T11:38:34.534Z,11.49
2023-04-05T11:41:13.074Z,10.33
2023-04-05T11:43:42.400Z,9.08
2023-04-05T11:46:09.997Z,9.10
2023-04-05T11:48:37.562Z,11.10
2023-04-05T11:51:09.456Z,12.14
2023-04-05T11:53:38.961Z,12.49
2023-04-05T11:56:12.824Z,10.48
2023-04-05T11:58:40.778Z,11.23
2023-04-05T12:01:08.777Z,11.15
2023-04-05T12:03:37.129Z,11.98
2023-04-05T12:06:06.338Z,13.18
2023-04-05T12:08:42.685Z,12.64
2023-04-05T12:11:11.544Z,13.30
2023-04-05T12:13:40.430Z,14.54
2023-04-05T12:16:09.757Z,15.20
2023-04-05T12:18:38.588Z,16.78
2023-04-05T12:21:09.859Z,16.56
2023-04-05T12:23:38.134Z,16.19
2023-04-05T12:26:08.046Z,17.54
2023-04-05T12:28:51.047Z,17.80
2023-04-05T12:31:18.641Z,16.37
2023-04-05T12:33:46.599Z,16.82
2023-04-05T12:36:15.934Z,17.50
2023-04-05T12:38:43.440Z,17.76
2023-04-05T12:41:12.470Z,16.15
2023-04-05T12:43:41.028Z,12.40
2023-04-05T12:46:12.335Z,11.62
2023-04-05T12:48:39.821Z,10.36
2023-04-05T12:51:16.632Z,9.51
2023-04-05T12:53:46.912Z,9.36
2023-04-05T12:56:17.065Z,10.48
2023-04-05T12:58:44.703Z,10.90
2023-04-05T13:01:12.811Z,9.25
2023-04-05T13:03:40.410Z,9.10
2023-04-05T13:06:08.198Z,8.57
2023-04-05T13:08:35.962Z,8.22
2023-04-05T13:11:03.407Z,9.35
2023-04-05T13:13:34.201Z,11.39
2023-04-05T13:16:01.719Z,13.20
2023-04-05T13:18:29.209Z,11.66
2023-04-05T13:20:56.727Z,12.04
2023-04-05T13:23:24.200Z,13.04
2023-04-05T13:25:51.688Z,13.65
2023-04-05T13:28:19.182Z,13.52
2023-04-05T13:30:49.134Z,14.87
2023-04-05T13:33:18.581Z,16.42
2023-04-05T13:35:46.170Z,16.65
2023-04-05T13:38:13.631Z,17.27
2023-04-05T13:40:41.159Z,18.03
2023-04-05T13:43:09.254Z,16.85
2023-04-05T13:45:37.643Z,14.39
2023-04-05T13:48:06.752Z,14.62
2023-04-05T13:50:34.278Z,12.61
2023-04-05T13:53:01.822Z,10.80
2023-04-05T13:55:29.299Z,10.01
2023-04-05T13:57:56.748Z,8.97
2023-04-05T14:00:24.463Z,8.29
2023-04-05T14:02:52.985Z,9.91
2023-04-05T14:05:22.165Z,10.41
2023-04-05T14:07:50.295Z,10.20
2023-04-05T14:10:19.586Z,9.96
2023-04-05T14:12:47.032Z,10.19
2023-04-05T14:15:14.511Z,9.08
2023-04-05T14:17:42.235Z,10.44
2023-04-05T14:20:10.351Z,12.09
2023-04-05T14:22:39.151Z,12.79
2023-04-05T14:25:08.250Z,14.70
2023-04-05T14:27:41.130Z,15.56
2023-04-05T14:30:09.915Z,15.86
2023-04-05T14:32:37.441Z,15.06
2023-04-05T14:35:05.293Z,13.60
2023-04-05T14:37:32.742Z,13.11
2023-04-05T14:40:01.546Z,12.60
2023-04-05T14:42:40.990Z,12.20
2023-04-05T14:45:13.327Z,11.95
2023-04-05T14:47:40.820Z,11.59
2023-04-05T14:50:08.960Z,10.93
2023-04-05T14:52:37.296Z,10.11
2023-04-05T14:55:06.443Z,9.22
2023-04-05T14:57:33.910Z,8.99
2023-04-05T15:00:01.355Z,9.27
2023-04-05T15:02:29.329Z,10.12
2023-04-05T15:05:00.296Z,11.00
2023-04-05T15:07:28.033Z,11.15
2023-04-05T15:09:55.654Z,9.95
2023-04-05T15:12:24.709Z,10.02
2023-04-05T15:14:54.214Z,10.33
2023-04-05T15:17:22.061Z,10.59
2023-04-05T15:19:49.557Z,10.86
2023-04-05T15:22:17.634Z,10.79
2023-04-05T15:24:45.267Z,8.95
2023-04-05T15:27:13.188Z,8.77
2023-04-05T15:29:42.100Z,9.48
2023-04-05T15:32:09.572Z,9.92
2023-04-05T15:34:37.029Z,10.70
2023-04-05T15:37:04.529Z,10.90
2023-04-05T15:39:32.023Z,11.27
2023-04-05T15:41:59.650Z,11.76
2023-04-05T15:44:27.338Z,12.34
2023-04-05T15:46:56.233Z,12.53
2023-04-05T15:49:23.742Z,12.84
2023-04-05T15:51:51.300Z,13.34
2023-04-05T15:54:20.796Z,13.53
2023-04-05T15:56:48.733Z,13.91
2023-04-05T15:59:16.220Z,13.47
2023-04-05T16:01:44.086Z,13.25
2023-04-05T16:04:13.033Z,13.63
2023-04-05T16:06:40.739Z,13.74
2023-04-05T16:09:08.205Z,13.24
2023-04-05T16:11:35.779Z,12.73
2023-04-05T16:14:03.868Z,10.99
2023-04-05T16:16:38.782Z,11.38
2023-04-05T16:19:14.657Z,11.29
2023-04-05T16:21:42.534Z,10.38
2023-04-05T16:24:10.037Z,9.70
2023-04-05T16:26:37.485Z,10.17
2023-04-05T16:29:05.381Z,9.74
2023-04-05T16:31:33.631Z,9.81
2023-04-05T16:34:01.557Z,9.12
2023-04-05T16:36:30.590Z,8.94
2023-04-05T16:38:58.103Z,8.82
2023-04-05T16:41:25.650Z,8.88
2023-04-05T16:43:53.189Z,8.67
2023-04-05T16:46:20.756Z,8.49
2023-04-05T16:48:48.359Z,8.99
2023-04-05T16:51:16.119Z,8.55
2023-04-05T16:53:44.951Z,8.95
2023-04-05T16:56:12.419Z,8.97
2023-04-05T16:58:39.886Z,8.94
2023-04-05T17:01:07.488Z,9.16
2023-04-05T17:03:34.993Z,9.19
2023-04-05T17:06:02.723Z,9.07
2023-04-05T17:08:30.210Z,9.05
2023-04-05T17:10:59.137Z,9.48
2023-04-05T17:13:26.642Z,9.60
2023-04-05T17:15:54.154Z,9.67
2023-04-05T17:18:21.653Z,9.70
2023-04-05T17:20:49.107Z,9.86
2023-04-05T17:23:16.616Z,9.69
2023-04-05T17:25:44.064Z,9.60
2023-04-05T17:28:13.752Z,9.62
2023-04-05T17:30:41.210Z,9.71
2023-04-05T17:33:08.784Z,9.27
2023-04-05T17:35:36.656Z,8.94
2023-04-05T17:38:04.416Z,8.56
2023-04-05T17:40:32.006Z,8.51
2023-04-05T17:42:59.435Z,8.07
2023-04-05T17:45:28.451Z,7.67
2023-04-05T17:47:56.193Z,7.22
2023-04-05T17:50:24.938Z,6.43
2023-04-05T17:52:52.554Z,5.72
2023-04-05T17:55:20.052Z,5.03
2023-04-05T17:57:47.508Z,5.29
2023-04-05T18:00:16.029Z,5.55
2023-04-05T18:02:45.728Z,5.68
2023-04-05T18:05:13.469Z,6.05
2023-04-05T18:07:42.457Z,5.98
2023-04-05T18:10:10.634Z,5.93
2023-04-05T18:12:38.140Z,5.64
2023-04-05T18:15:06.377Z,5.60
2023-04-05T18:17:33.939Z,5.65
2023-04-05T18:20:03.562Z,5.61
2023-04-05T18:22:32.389Z,5.49
2023-04-05T18:24:59.847Z,5.22
2023-04-05T18:27:27.308Z,5.08
2023-04-05T18:29:54.774Z,4.99
2023-04-05T18:32:22.419Z,4.91
2023-04-05T18:34:50.075Z,4.81
2023-04-05T18:37:18.892Z,4.70
2023-04-05T18:39:46.347Z,4.40
2023-04-05T18:42:13.828Z,4.50
2023-04-05T18:44:41.339Z,4.42
2023-04-05T18:47:08.852Z,4.31
2023-04-05T18:49:37.064Z,4.14
2023-04-05T18:52:04.605Z,3.95
2023-04-05T18:54:33.444Z,3.87
2023-04-05T18:57:00.947Z,3.74
2023-04-05T18:59:29.289Z,3.71
2023-04-05T19:01:56.981Z,3.68
2023-04-05T19:04:24.507Z,3.70
2023-04-05T19:06:51.984Z,3.70
2023-04-05T19:09:20.114Z,3.58
2023-04-05T19:11:48.945Z,3.38
2023-04-05T19:14:16.689Z,3.21
2023-04-05T19:16:44.176Z,3.17
2023-04-05T19:19:11.752Z,2.97
2023-04-05T19:21:39.237Z,2.59
2023-04-05T19:24:09.633Z,2.62
2023-04-05T19:26:37.933Z,2.85
2023-04-05T19:29:06.985Z,2.92
2023-04-05T19:31:34.905Z,2.91
2023-04-05T19:34:02.422Z,2.73
2023-04-05T19:36:29.889Z,2.67
2023-04-05T19:38:57.433Z,2.63
2023-04-05T19:41:25.978Z,2.62
2023-04-05T19:43:53.447Z,2.70
2023-04-05T19:46:22.979Z,2.62
2023-04-05T19:48:50.497Z,2.37
2023-04-05T19:51:20.250Z,2.18
2023-04-05T19:53:49.110Z,2.21
2023-04-05T19:56:20.203Z,2.22
2023-04-05T19:58:49.153Z,2.35
2023-04-05T20:01:34.742Z,2.40
2023-04-05T20:04:03.252Z,2.25
2023-04-05T20:06:33.701Z,2.30
2023-04-05T20:09:03.627Z,2.26
2023-04-05T20:11:31.539Z,2.13
2023-04-05T20:14:01.778Z,1.97
2023-04-05T20:16:32.469Z,1.88
2023-04-05T20:19:02.837Z,1.79
2023-04-05T20:21:30.887Z,1.53
2023-04-05T20:23:58.697Z,1.70
2023-04-05T20:26:28.974Z,1.87
2023-04-05T20:28:57.561Z,1.87
2023-04-05T20:31:26.508Z,1.81
2023-04-05T20:33:57.896Z,1.75
2023-04-05T20:36:32.945Z,1.73
2023-04-05T20:39:01.209Z,1.37
2023-04-05T20:41:29.668Z,1.64
2023-04-05T20:43:57.383Z,1.57
2023-04-05T20:46:26.106Z,1.67
2023-04-05T20:48:57.146Z,1.63
2023-04-05T20:51:24.940Z,1.66
2023-04-05T20:53:52.578Z,1.56
2023-04-05T20:56:20.060Z,1.61
2023-04-05T20:58:47.701Z,1.52
2023-04-05T21:01:15.584Z,1.53
2023-04-05T21:03:43.535Z,1.44
2023-04-05T21:06:12.475Z,1.57
2023-04-05T21:08:41.392Z,1.36
2023-04-05T21:11:10.726Z,1.61
2023-04-05T21:13:39.055Z,1.67
2023-04-05T21:16:06.997Z,1.67
2023-04-05T21:18:34.668Z,1.68
2023-04-05T21:21:02.179Z,1.51
2023-04-05T21:23:32.743Z,1.55
2023-04-05T21:26:01.614Z,1.59
2023-04-05T21:28:29.092Z,1.66
2023-04-05T21:30:56.591Z,1.66
2023-04-05T21:33:24.191Z,1.71
2023-04-05T21:35:51.746Z,1.67
2023-04-05T21:38:19.491Z,1.69
2023-04-05T21:40:50.057Z,1.68
2023-04-05T21:43:17.613Z,1.68
2023-04-05T21:45:45.828Z,1.52
2023-04-05T21:48:13.387Z,1.52
2023-04-05T21:50:40.896Z,1.40
2023-04-05T21:53:09.663Z,1.31
2023-04-05T21:55:37.220Z,1.13
2023-04-05T21:58:06.194Z,1.08
2023-04-05T22:00:33.682Z,1.05
2023-04-05T22:03:01.242Z,0.93
2023-04-05T22:05:37.272Z,0.82
2023-04-05T22:08:07.315Z,0.69
2023-04-05T22:10:35.936Z,0.85
2023-04-05T22:13:03.448Z,0.90
2023-04-05T22:15:32.262Z,0.99
2023-04-05T22:17:59.941Z,0.99
2023-04-05T22:20:27.453Z,0.92
2023-04-05T22:22:55.834Z,0.80
2023-04-05T22:25:23.320Z,0.88
2023-04-05T22:27:50.787Z,0.85
2023-04-05T22:30:18.292Z,0.52
2023-04-05T22:32:47.677Z,0.58
2023-04-05T22:35:15.301Z,0.68
2023-04-05T22:37:42.789Z,0.66
2023-04-05T22:40:11.634Z,0.56
2023-04-05T22:42:41.871Z,0.50
2023-04-05T22:45:10.464Z,0.44
2023-04-05T22:47:38.142Z,0.51
2023-04-05T22:50:08.222Z,0.45
2023-04-05T22:52:35.777Z,0.52
2023-04-05T22:55:04.316Z,0.63
2023-04-05T22:57:32.402Z,0.61
2023-04-05T22:59:59.888Z,0.41
2023-04-05T23:02:29.355Z,0.53
2023-04-05T23:04:57.165Z,0.54
2023-04-05T23:07:26.473Z,0.63
2023-04-05T23:09:53.948Z,0.62
2023-04-05T23:12:21.517Z,0.65
2023-04-05T23:14:48.983Z,0.59
2023-04-05T23:17:16.696Z,0.59
2023-04-05T23:19:44.331Z,0.59
2023-04-05T23:22:11.797Z,0.59
2023-04-05T23:24:40.584Z,0.58
2023-04-05T23:27:08.092Z,0.52
2023-04-05T23:29:35.978Z,0.48
2023-04-05T23:32:03.473Z,0.36
2023-04-05T23:34:30.958Z,0.28
2023-04-05T23:36:58.444Z,0.22
2023-04-05T23:39:25.958Z,0.20
2023-04-05T23:41:54.834Z,0.27
2023-04-05T23:44:22.323Z,0.33
2023-04-05T23:46:49.795Z,0.38
2023-04-05T23:49:17.318Z,0.41
2023-04-05T23:51:44.843Z,0.49
2023-04-05T23:54:12.561Z,0.48
2023-04-05T23:56:40.036Z,0.49
2023-04-05T23:59:09.095Z,0.33
